createdAt,value
2022-08-05T00:00:19.610Z,19.77
2022-08-05T00:02:51.452Z,20.02
2022-08-05T00:05:27.062Z,19.54
2022-08-05T00:08:32.571Z,19.21
2022-08-05T00:11:00.756Z,19.39
2022-08-05T00:13:38.405Z,19.67
2022-08-05T00:16:12.574Z,19.50
2022-08-05T00:18:45.218Z,19.84
2022-08-05T00:21:14.450Z,19.34
2022-08-05T00:23:46.967Z,19.53
2022-08-05T00:26:30.821Z,19.14
2022-08-05T00:28:59.343Z,18.83
2022-08-05T00:31:41.397Z,18.35
2022-08-05T00:34:53.755Z,18.64
2022-08-05T00:37:10.663Z,18.61
2022-08-05T00:39:58.778Z,18.93
2022-08-05T00:42:34.380Z,19.04
2022-08-05T00:45:02.455Z,19.37
2022-08-05T00:47:53.323Z,18.92
2022-08-05T00:50:17.242Z,18.91
2022-08-05T00:52:45.379Z,18.77
2022-08-05T00:55:14.128Z,18.51
2022-08-05T00:57:55.600Z,18.55
2022-08-05T01:00:32.321Z,18.92
2022-08-05T01:03:01.323Z,18.64
2022-08-05T01:05:35.236Z,18.75
2022-08-05T01:08:30.812Z,18.71
2022-08-05T01:11:22.213Z,18.22
2022-08-05T01:14:16.576Z,18.26
2022-08-05T01:16:52.268Z,18.69
2022-08-05T01:19:46.331Z,18.72
2022-08-05T01:22:29.083Z,18.61
2022-08-05T01:25:20.706Z,18.75
2022-08-05T01:28:20.972Z,19.02
2022-08-05T01:30:57.287Z,19.19
2022-08-05T01:33:35.469Z,19.06
2022-08-05T01:36:13.041Z,18.50
2022-08-05T01:38:44.224Z,18.13
2022-08-05T01:41:14.590Z,18.22
2022-08-05T01:43:42.080Z,18.04
2022-08-05T01:46:16.650Z,18.34
2022-08-05T01:48:58.682Z,17.96
2022-08-05T01:51:26.912Z,17.78
2022-08-05T01:53:59.186Z,17.78
2022-08-05T01:58:12.154Z,18.12
2022-08-05T01:59:20.864Z,18.32
2022-08-05T02:01:49.989Z,18.19
2022-08-05T02:04:18.604Z,18.55
2022-08-05T02:06:45.976Z,18.75
2022-08-05T02:09:16.352Z,19.02
2022-08-05T02:12:05.935Z,18.66
2022-08-05T02:15:04.128Z,18.54
2022-08-05T02:18:30.569Z,18.89
2022-08-05T02:20:28.250Z,18.99
2022-08-05T02:23:01.665Z,18.70
2022-08-05T02:25:32.980Z,18.90
2022-08-05T02:28:02.997Z,18.93
2022-08-05T02:30:54.404Z,18.76
2022-08-05T02:33:24.646Z,18.78
2022-08-05T02:36:05.486Z,18.77
2022-08-05T02:38:35.495Z,19.08
2022-08-05T02:41:06.399Z,18.88
2022-08-05T02:44:02.964Z,18.88
2022-08-05T02:46:31.138Z,18.76
2022-08-05T02:49:01.380Z,18.18
2022-08-05T02:52:02.932Z,18.06
2022-08-05T02:54:34.822Z,18.12
2022-08-05T02:57:10.084Z,18.18
2022-08-05T02:59:57.735Z,18.49
2022-08-05T03:02:29.927Z,18.65
2022-08-05T03:04:58.288Z,18.57
2022-08-05T03:08:00.331Z,18.54
2022-08-05T03:10:24.604Z,18.55
2022-08-05T03:12:54.173Z,18.72
2022-08-05T03:15:23.482Z,18.79
2022-08-05T03:17:55.771Z,18.66
2022-08-05T03:20:24.492Z,18.59
2022-08-05T03:22:57.360Z,18.66
2022-08-05T03:25:33.507Z,18.63
2022-08-05T03:28:13.928Z,18.80
2022-08-05T03:30:42.770Z,18.71
2022-08-05T03:33:10.309Z,18.75
2022-08-05T03:35:40.687Z,18.93
2022-08-05T03:38:11.829Z,18.99
2022-08-05T03:40:48.447Z,18.92
2022-08-05T03:44:09.902Z,18.89
2022-08-05T03:46:05.146Z,18.78
2022-08-05T03:48:36.779Z,19.13
2022-08-05T03:52:37.483Z,19.00
2022-08-05T03:55:52.465Z,18.84
2022-08-05T03:56:59.865Z,18.89
2022-08-05T03:59:47.170Z,18.93
2022-08-05T04:02:37.490Z,19.03
2022-08-05T04:05:09.962Z,19.20
2022-08-05T04:07:57.338Z,18.84
2022-08-05T04:10:30.787Z,18.82
2022-08-05T04:13:01.235Z,18.48
2022-08-05T04:15:32.988Z,18.17
2022-08-05T04:18:09.357Z,18.39
2022-08-05T04:20:37.408Z,18.43
2022-08-05T04:23:04.677Z,18.35
2022-08-05T04:25:56.577Z,18.44
2022-08-05T04:28:20.548Z,18.50
2022-08-05T04:30:58.652Z,18.72
2022-08-05T04:33:54.395Z,18.55
2022-08-05T04:36:44.901Z,18.38
2022-08-05T04:39:07.172Z,18.39
2022-08-05T04:41:36.714Z,18.57
2022-08-05T04:44:09.101Z,18.75
2022-08-05T04:46:38.464Z,18.51
2022-08-05T04:49:12.356Z,18.25
2022-08-05T04:51:45.187Z,18.23
2022-08-05T04:54:14.661Z,18.56
2022-08-05T04:56:42.396Z,18.74
2022-08-05T04:59:14.011Z,18.63
2022-08-05T05:02:35.198Z,18.39
2022-08-05T05:04:38.279Z,18.03
2022-08-05T05:07:09.547Z,18.30
2022-08-05T05:09:37.486Z,18.39
2022-08-05T05:12:06.267Z,18.46
2022-08-05T05:14:36.272Z,18.41
2022-08-05T05:17:07.600Z,18.41
2022-08-05T05:19:44.346Z,18.37
2022-08-05T05:22:24.032Z,18.56
2022-08-05T05:24:58.946Z,18.46
2022-08-05T05:27:45.015Z,18.42
2022-08-05T05:30:30.689Z,18.57
2022-08-05T05:33:09.436Z,18.60
2022-08-05T05:35:46.880Z,18.80
2022-08-05T05:38:27.001Z,18.81
2022-08-05T05:40:57.860Z,18.96
2022-08-05T05:43:54.613Z,18.77
2022-08-05T05:46:17.600Z,18.70
2022-08-05T05:48:48.028Z,18.55
2022-08-05T05:51:20.605Z,18.79
2022-08-05T05:53:57.671Z,19.04
2022-08-05T05:56:32.602Z,19.48
2022-08-05T05:59:06.658Z,19.65
2022-08-05T06:01:37.811Z,19.69
2022-08-05T06:04:11.930Z,19.78
2022-08-05T06:06:42.059Z,20.37
2022-08-05T06:09:17.540Z,20.39
2022-08-05T06:12:01.899Z,20.53
2022-08-05T06:14:30.905Z,20.42
2022-08-05T06:16:58.585Z,20.36
2022-08-05T06:19:34.038Z,20.25
2022-08-05T06:22:03.898Z,20.12
2022-08-05T06:24:32.023Z,19.17
2022-08-05T06:26:59.234Z,18.41
2022-08-05T06:29:48.993Z,18.54
2022-08-05T06:32:26.186Z,19.25
2022-08-05T06:34:58.606Z,18.28
2022-08-05T06:37:55.666Z,19.35
2022-08-05T06:40:18.071Z,19.29
2022-08-05T06:42:52.108Z,18.81
2022-08-05T06:45:44.466Z,18.82
2022-08-05T06:48:36.840Z,18.60
2022-08-05T06:50:57.893Z,18.73
2022-08-05T06:53:28.505Z,18.85
2022-08-05T06:56:00.756Z,19.10
2022-08-05T06:58:35.023Z,19.23
2022-08-05T07:01:05.753Z,19.57
2022-08-05T07:03:33.796Z,19.40
2022-08-05T07:06:06.010Z,19.19
2022-08-05T07:08:47.220Z,19.16
2022-08-05T07:11:16.211Z,19.19
2022-08-05T07:14:02.703Z,19.46
2022-08-05T07:18:00.458Z,19.43
2022-08-05T07:22:29.151Z,19.74
2022-08-05T07:25:22.432Z,19.67
2022-08-05T07:27:56.363Z,19.98
2022-08-05T07:30:31.944Z,19.95
2022-08-05T07:33:01.861Z,20.00
2022-08-05T07:36:03.567Z,20.03
2022-08-05T07:38:33.022Z,19.89
2022-08-05T07:41:34.981Z,20.24
2022-08-05T07:43:56.302Z,19.85
2022-08-05T07:46:26.202Z,19.59
2022-08-05T07:49:03.591Z,19.54
2022-08-05T07:51:41.157Z,19.77
2022-08-05T07:54:23.176Z,19.49
2022-08-05T07:57:13.546Z,19.52
2022-08-05T07:59:42.303Z,19.92
2022-08-05T08:02:16.704Z,19.63
2022-08-05T08:04:47.775Z,19.74
2022-08-05T08:07:17.929Z,20.02
2022-08-05T08:09:46.391Z,19.69
2022-08-05T08:12:36.931Z,19.92
2022-08-05T08:15:04.356Z,19.80
2022-08-05T08:17:36.342Z,19.95
2022-08-05T08:20:22.694Z,20.85
2022-08-05T08:22:57.001Z,20.62
2022-08-05T08:25:27.091Z,20.42
2022-08-05T08:28:18.678Z,19.92
2022-08-05T08:31:02.190Z,20.04
2022-08-05T08:33:36.083Z,19.61
2022-08-05T08:38:56.783Z,20.07
2022-08-05T08:41:52.579Z,19.84
2022-08-05T08:45:24.433Z,20.22
2022-08-05T08:47:04.202Z,20.27
2022-08-05T08:50:06.070Z,20.34
2022-08-05T08:52:53.275Z,20.55
2022-08-05T08:56:01.710Z,20.45
2022-08-05T08:58:10.207Z,20.57
2022-08-05T09:00:41.340Z,20.60
2022-08-05T09:03:10.471Z,21.11
2022-08-05T09:05:38.782Z,21.39
2022-08-05T09:08:26.513Z,21.65
2022-08-05T09:10:54.293Z,21.50
2022-08-05T09:13:21.654Z,21.67
2022-08-05T09:15:54.048Z,21.70
2022-08-05T09:18:22.363Z,21.76
2022-08-05T09:20:51.565Z,21.98
2022-08-05T09:23:21.650Z,21.20
2022-08-05T09:26:00.353Z,20.94
2022-08-05T09:28:35.062Z,20.84
2022-08-05T09:31:23.483Z,20.86
2022-08-05T09:33:59.069Z,20.96
2022-08-05T09:36:56.052Z,21.30
2022-08-05T09:39:27.703Z,21.28
2022-08-05T09:42:20.131Z,21.17
2022-08-05T09:44:56.756Z,21.24
2022-08-05T09:47:34.965Z,21.18
2022-08-05T09:50:37.361Z,21.10
2022-08-05T09:53:09.079Z,21.05
2022-08-05T09:55:57.052Z,21.08
2022-08-05T09:58:29.112Z,21.32
2022-08-05T10:01:02.196Z,21.67
2022-08-05T10:03:58.804Z,21.78
2022-08-05T10:06:28.231Z,21.71
2022-08-05T10:08:56.989Z,21.77
2022-08-05T10:11:35.005Z,21.88
2022-08-05T10:14:32.223Z,22.15
2022-08-05T10:17:37.220Z,21.99
2022-08-05T10:20:04.076Z,21.90
2022-08-05T10:22:38.106Z,22.27
2022-08-05T10:25:10.345Z,22.37
2022-08-05T10:28:13.290Z,22.49
2022-08-05T10:31:20.970Z,22.68
2022-08-05T10:33:17.668Z,22.44
2022-08-05T10:35:50.854Z,22.41
2022-08-05T10:38:29.359Z,22.52
2022-08-05T10:41:23.939Z,22.62
2022-08-05T10:43:53.972Z,22.53
2022-08-05T10:46:23.848Z,22.47
2022-08-05T10:49:05.045Z,22.57
2022-08-05T10:51:59.985Z,22.74
2022-08-05T10:55:04.703Z,22.68
2022-08-05T10:57:34.303Z,23.01
2022-08-05T11:00:18.241Z,23.10
2022-08-05T11:03:25.599Z,23.09
2022-08-05T11:06:16.054Z,23.15
2022-08-05T11:09:16.582Z,23.24
2022-08-05T11:11:53.552Z,23.23
2022-08-05T11:14:56.291Z,23.42
2022-08-05T11:18:00.451Z,23.58
2022-08-05T11:20:39.209Z,23.85
2022-08-05T11:24:02.644Z,23.73
2022-08-05T11:26:28.973Z,23.37
2022-08-05T11:29:11.532Z,23.08
2022-08-05T11:31:58.616Z,23.07
2022-08-05T11:34:40.184Z,23.05
2022-08-05T11:38:29.278Z,23.29
2022-08-05T11:41:00.806Z,23.50
2022-08-05T11:44:01.009Z,23.65
2022-08-05T11:46:32.484Z,23.88
2022-08-05T11:49:01.920Z,23.76
2022-08-05T11:51:43.579Z,23.59
2022-08-05T11:54:14.112Z,23.79
2022-08-05T11:56:50.490Z,23.56
2022-08-05T11:59:21.504Z,23.62
2022-08-05T12:01:56.485Z,23.93
2022-08-05T12:04:24.568Z,23.95
2022-08-05T12:06:54.791Z,23.66
2022-08-05T12:09:52.992Z,23.90
2022-08-05T12:12:14.249Z,24.02
2022-08-05T12:14:43.376Z,24.46
2022-08-05T12:18:02.985Z,24.44
2022-08-05T12:20:17.688Z,23.78
2022-08-05T12:22:51.810Z,23.73
2022-08-05T12:25:19.262Z,23.89
2022-08-05T12:27:53.636Z,24.04
2022-08-05T12:30:22.393Z,24.09
2022-08-05T12:33:07.516Z,24.25
2022-08-05T12:35:46.061Z,24.20
2022-08-05T12:38:15.361Z,24.44
2022-08-05T12:40:44.226Z,24.37
2022-08-05T12:43:11.671Z,24.41
2022-08-05T12:45:55.020Z,24.67
2022-08-05T12:48:27.307Z,24.56
2022-08-05T12:52:10.061Z,24.56
2022-08-05T12:54:16.933Z,24.16
2022-08-05T12:56:54.652Z,24.07
2022-08-05T12:59:27.534Z,24.41
2022-08-05T13:02:12.572Z,24.66
2022-08-05T13:04:52.423Z,24.93
2022-08-05T13:07:57.483Z,25.00
2022-08-05T13:10:19.683Z,24.91
2022-08-05T13:12:57.100Z,25.13
2022-08-05T13:15:36.059Z,24.84
2022-08-05T13:18:09.587Z,24.59
2022-08-05T13:20:40.412Z,24.34
2022-08-05T13:23:08.015Z,24.53
2022-08-05T13:25:52.057Z,24.59
2022-08-05T13:28:22.771Z,24.46
2022-08-05T13:30:51.163Z,24.69
2022-08-05T13:34:24.394Z,24.78
2022-08-05T13:36:14.489Z,25.08
2022-08-05T13:38:43.105Z,25.11
2022-08-05T13:41:11.686Z,25.10
2022-08-05T13:43:44.366Z,25.04
2022-08-05T13:46:43.670Z,25.02
2022-08-05T13:49:12.709Z,25.15
2022-08-05T13:51:46.362Z,25.02
2022-08-05T13:54:20.961Z,24.84
2022-08-05T13:56:53.460Z,24.86
2022-08-05T13:59:23.787Z,24.99
2022-08-05T14:01:59.603Z,25.13
2022-08-05T14:04:49.430Z,24.79
2022-08-05T14:07:59.476Z,24.66
2022-08-05T14:10:19.286Z,24.39
2022-08-05T14:12:56.047Z,24.60
2022-08-05T14:16:05.293Z,24.60
2022-08-05T14:18:17.298Z,24.67
2022-08-05T14:20:54.800Z,24.86
2022-08-05T14:23:25.253Z,24.74
2022-08-05T14:25:58.198Z,24.62
2022-08-05T14:28:28.694Z,24.47
2022-08-05T14:30:57.421Z,24.64
2022-08-05T14:33:25.902Z,24.69
2022-08-05T14:35:54.323Z,24.81
2022-08-05T14:38:32.505Z,24.69
2022-08-05T14:41:06.807Z,24.55
2022-08-05T14:44:02.319Z,24.76
2022-08-05T14:46:29.016Z,24.83
2022-08-05T14:49:03.655Z,24.50
2022-08-05T14:51:42.489Z,24.70
2022-08-05T14:54:28.386Z,24.62
2022-08-05T14:56:58.059Z,24.38
2022-08-05T14:59:29.349Z,24.44
2022-08-05T15:02:14.903Z,24.46
2022-08-05T15:04:51.783Z,24.43
2022-08-05T15:08:05.737Z,24.44
2022-08-05T15:10:09.603Z,24.76
2022-08-05T15:12:59.889Z,24.62
2022-08-05T15:15:55.187Z,24.95
2022-08-05T15:18:13.390Z,25.17
2022-08-05T15:20:42.529Z,25.19
2022-08-05T15:23:11.307Z,25.22
2022-08-05T15:25:51.060Z,25.13
2022-08-05T15:28:19.106Z,24.71
2022-08-05T15:30:53.003Z,24.65
2022-08-05T15:34:04.145Z,24.61
2022-08-05T15:36:16.830Z,24.68
2022-08-05T15:38:46.670Z,24.53
2022-08-05T15:41:23.306Z,24.57
2022-08-05T15:43:54.534Z,24.56
2022-08-05T15:46:24.004Z,24.70
2022-08-05T15:48:58.639Z,24.80
2022-08-05T15:52:12.907Z,25.01
2022-08-05T15:54:17.471Z,24.41
2022-08-05T15:56:44.837Z,24.49
2022-08-05T15:59:21.872Z,24.69
2022-08-05T16:01:52.662Z,24.93
2022-08-05T16:04:25.621Z,24.98
2022-08-05T16:06:56.696Z,24.66
2022-08-05T16:09:25.773Z,24.67
2022-08-05T16:11:58.727Z,24.75
2022-08-05T16:14:26.870Z,24.72
2022-08-05T16:16:54.717Z,24.93
2022-08-05T16:20:02.932Z,24.99
2022-08-05T16:22:10.475Z,24.65
2022-08-05T16:24:41.432Z,24.70
2022-08-05T16:27:18.399Z,24.61
2022-08-05T16:29:50.827Z,24.44
2022-08-05T16:32:28.406Z,24.55
2022-08-05T16:34:57.588Z,24.28
2022-08-05T16:38:03.148Z,24.36
2022-08-05T16:40:26.587Z,24.34
2022-08-05T16:42:56.809Z,24.11
2022-08-05T16:46:04.414Z,24.06
2022-08-05T16:48:11.437Z,23.95
2022-08-05T16:50:53.662Z,24.13
2022-08-05T16:53:22.473Z,24.13
2022-08-05T16:55:59.430Z,24.28
2022-08-05T16:58:26.803Z,24.20
2022-08-05T17:00:54.230Z,24.31
2022-08-05T17:03:22.320Z,24.32
2022-08-05T17:05:53.953Z,24.55
2022-08-05T17:08:36.348Z,24.50
2022-08-05T17:11:12.695Z,24.49
2022-08-05T17:13:47.088Z,24.44
2022-08-05T17:16:33.498Z,24.27
2022-08-05T17:19:01.774Z,24.40
2022-08-05T17:21:35.817Z,24.21
2022-08-05T17:24:14.378Z,24.21
2022-08-05T17:26:54.087Z,24.12
2022-08-05T17:29:33.441Z,24.24
2022-08-05T17:32:11.856Z,24.18
2022-08-05T17:34:47.782Z,23.98
2022-08-05T17:37:41.450Z,23.87
2022-08-05T17:40:10.280Z,23.89
2022-08-05T17:42:41.639Z,23.82
2022-08-05T17:45:20.826Z,23.93
2022-08-05T17:47:54.411Z,24.09
2022-08-05T17:50:28.715Z,23.78
2022-08-05T17:53:01.421Z,23.83
2022-08-05T17:55:34.559Z,24.02
2022-08-05T17:58:12.377Z,24.08
2022-08-05T18:00:45.050Z,23.89
2022-08-05T18:06:06.172Z,23.56
2022-08-05T18:08:44.764Z,23.61
2022-08-05T18:11:23.252Z,23.59
2022-08-05T18:13:52.669Z,23.74
2022-08-05T18:16:20.329Z,23.55
2022-08-05T18:18:49.812Z,23.52
2022-08-05T18:21:20.004Z,23.47
2022-08-05T18:23:53.449Z,23.38
2022-08-05T18:26:27.702Z,23.32
2022-08-05T18:28:57.528Z,23.35
2022-08-05T18:31:25.127Z,23.28
2022-08-05T18:33:52.836Z,23.27
2022-08-05T18:36:27.957Z,23.19
2022-08-05T18:38:55.978Z,23.03
2022-08-05T18:41:58.087Z,22.93
2022-08-05T18:44:11.331Z,22.94
2022-08-05T18:46:41.280Z,23.17
2022-08-05T18:49:30.370Z,22.92
2022-08-05T18:52:16.782Z,22.80
2022-08-05T18:54:45.993Z,22.88
2022-08-05T18:57:15.520Z,22.78
2022-08-05T19:00:02.180Z,22.64
2022-08-05T19:02:30.361Z,22.56
2022-08-05T19:05:02.499Z,22.58
2022-08-05T19:07:50.103Z,22.57
2022-08-05T19:10:26.652Z,22.52
2022-08-05T19:12:58.097Z,22.40
2022-08-05T19:15:58.714Z,22.47
2022-08-05T19:18:20.910Z,22.39
2022-08-05T19:20:53.910Z,22.33
2022-08-05T19:24:04.434Z,22.12
2022-08-05T19:26:11.248Z,22.18
2022-08-05T19:28:43.392Z,22.25
2022-08-05T19:31:13.410Z,21.94
2022-08-05T19:33:48.302Z,21.98
2022-08-05T19:36:25.941Z,21.88
2022-08-05T19:38:55.067Z,22.05
2022-08-05T19:42:05.463Z,22.06
2022-08-05T19:44:16.013Z,22.18
2022-08-05T19:46:43.666Z,22.07
2022-08-05T19:49:16.374Z,21.89
2022-08-05T19:52:04.733Z,21.72
2022-08-05T19:54:32.971Z,21.97
2022-08-05T19:57:06.644Z,21.51
2022-08-05T19:59:56.297Z,21.41
2022-08-05T20:02:27.011Z,21.43
2022-08-05T20:04:58.579Z,21.65
2022-08-05T20:07:47.341Z,21.56
2022-08-05T20:10:22.347Z,21.41
2022-08-05T20:12:51.986Z,21.41
2022-08-05T20:15:23.030Z,21.27
2022-08-05T20:18:10.689Z,21.56
2022-08-05T20:20:56.885Z,21.23
2022-08-05T20:23:40.738Z,21.21
2022-08-05T20:26:17.311Z,21.16
2022-08-05T20:28:47.951Z,21.18
2022-08-05T20:31:16.634Z,21.01
2022-08-05T20:33:45.024Z,20.99
2022-08-05T20:36:14.371Z,21.01
2022-08-05T20:38:54.338Z,20.80
2022-08-05T20:41:43.120Z,20.95
2022-08-05T20:44:18.744Z,20.88
2022-08-05T20:46:57.889Z,20.95
2022-08-05T20:49:25.892Z,20.83
2022-08-05T20:51:54.639Z,20.83
2022-08-05T20:54:22.874Z,20.67
2022-08-05T20:56:52.430Z,20.75
2022-08-05T20:59:26.844Z,20.71
2022-08-05T21:02:07.684Z,20.47
2022-08-05T21:04:36.782Z,20.41
2022-08-05T21:07:05.207Z,20.27
2022-08-05T21:09:35.492Z,20.41
2022-08-05T21:12:09.282Z,20.59
2022-08-05T21:14:38.731Z,20.50
2022-08-05T21:17:06.331Z,20.30
2022-08-05T21:19:47.006Z,20.21
2022-08-05T21:22:23.490Z,20.24
2022-08-05T21:24:52.601Z,20.16
2022-08-05T21:27:25.487Z,20.29
2022-08-05T21:29:58.734Z,20.20
2022-08-05T21:32:29.734Z,20.11
2022-08-05T21:35:16.829Z,19.95
2022-08-05T21:37:52.746Z,19.81
2022-08-05T21:40:23.200Z,19.71
2022-08-05T21:42:52.875Z,19.76
2022-08-05T21:45:24.633Z,19.69
2022-08-05T21:47:55.984Z,19.72
2022-08-05T21:50:26.427Z,19.66
2022-08-05T21:52:59.060Z,19.62
2022-08-05T21:56:01.278Z,19.68
2022-08-05T21:58:20.485Z,19.65
2022-08-05T22:00:56.293Z,19.73
2022-08-05T22:03:49.044Z,19.64
2022-08-05T22:06:11.201Z,19.70
2022-08-05T22:08:42.526Z,19.69
2022-08-05T22:11:15.480Z,19.73
2022-08-05T22:14:05.897Z,19.63
2022-08-05T22:16:51.682Z,19.55
2022-08-05T22:20:02.125Z,19.64
2022-08-05T22:25:21.373Z,19.71
2022-08-05T22:28:08.743Z,19.65
2022-08-05T22:30:55.345Z,19.48
2022-08-05T22:33:55.447Z,19.66
2022-08-05T22:36:14.638Z,19.63
2022-08-05T22:38:48.017Z,19.71
2022-08-05T22:41:26.326Z,19.51
2022-08-05T22:44:06.360Z,19.38
2022-08-05T22:46:34.253Z,19.24
2022-08-05T22:49:12.466Z,19.24
2022-08-05T22:52:05.659Z,19.35
2022-08-05T22:54:36.411Z,19.39
2022-08-05T22:57:05.013Z,19.28
2022-08-05T22:59:45.894Z,19.33
2022-08-05T23:02:28.823Z,19.14
2022-08-05T23:05:01.879Z,19.18
2022-08-05T23:07:45.513Z,19.08
2022-08-05T23:10:20.160Z,18.82
2022-08-05T23:12:51.629Z,18.99
2022-08-05T23:15:27.030Z,19.03
2022-08-05T23:18:01.818Z,19.14
2022-08-05T23:20:31.468Z,19.03
2022-08-05T23:23:00.302Z,19.04
2022-08-05T23:25:51.725Z,19.00
2022-08-05T23:28:18.503Z,18.70
2022-08-05T23:30:53.164Z,18.89
2022-08-05T23:33:26.322Z,18.80
2022-08-05T23:36:10.261Z,18.76
2022-08-05T23:38:38.236Z,18.70
2022-08-05T23:41:05.715Z,18.91
2022-08-05T23:43:49.722Z,19.02
2022-08-05T23:46:22.149Z,18.84
2022-08-05T23:49:00.015Z,18.74
2022-08-05T23:51:56.289Z,18.83
2022-08-05T23:54:34.167Z,18.72
2022-08-05T23:57:05.032Z,18.69
